Time;durP1;ratioP1;P1;durP2;ratioP2;P2;SDS_P1;SDS_P2;PMS_P1;PMS_P2;Temp;Humidity;BMP_temperature;BMP_pressure;BME280_temperature;BME280_humidity;BME280_pressure;Samples;Min_cycle;Max_cycle;Signal;HPM_P1;HPM_P2
2023/07/26 00:00:08;;;;;;;5.60;4.30;;;;;;;15.01;94.78;95522.69;108343;1272;25358;-76
2023/07/26 00:03:02;;;;;;;5.80;4.70;;;;;;;15.05;94.82;95525.59;108277;1272;22535;-76
2023/07/26 00:05:34;;;;;;;5.40;4.60;;;;;;;15.10;94.88;95529.98;108291;1276;24745;-76
2023/07/26 00:08:11;;;;;;;5.60;4.30;;;;;;;15.15;94.74;95524.34;108326;1272;22536;-76
2023/07/26 00:10:46;;;;;;;6.50;4.40;;;;;;;15.17;94.50;95522.47;108330;1279;25530;-76
2023/07/26 00:13:19;;;;;;;6.40;4.40;;;;;;;15.18;94.58;95513.12;108269;1279;22531;-76
2023/07/26 00:15:50;;;;;;;6.80;3.90;;;;;;;15.20;94.37;95510.15;108143;1279;22532;-76
2023/07/26 00:18:22;;;;;;;5.40;4.00;;;;;;;15.21;94.38;95499.97;108193;1279;22521;-76
2023/07/26 00:20:54;;;;;;;6.70;4.50;;;;;;;15.19;94.24;95498.43;108227;1271;22522;-76
2023/07/26 00:23:26;;;;;;;6.20;4.20;;;;;;;15.17;94.17;95502.11;108240;1272;22522;-76
2023/07/26 00:25:57;;;;;;;6.60;4.70;;;;;;;15.15;94.12;95509.15;108198;1272;22544;-76
2023/07/26 00:28:29;;;;;;;6.10;4.60;;;;;;;15.13;94.12;95515.06;108174;1272;22645;-76
2023/07/26 00:31:00;;;;;;;5.80;4.40;;;;;;;15.16;94.16;95515.44;108237;1279;22716;-76
2023/07/26 00:33:33;;;;;;;6.00;4.20;;;;;;;15.19;94.36;95513.70;108281;1271;22539;-76
2023/07/26 00:36:05;;;;;;;5.20;4.30;;;;;;;15.23;94.21;95514.61;108238;1279;24460;-76
2023/07/26 00:38:36;;;;;;;5.20;4.20;;;;;;;15.28;94.30;95511.84;108273;1272;25394;-76
2023/07/26 00:41:10;;;;;;;6.10;4.60;;;;;;;15.32;94.26;95511.58;108201;1279;25032;-76
2023/07/26 00:43:41;;;;;;;6.90;4.60;;;;;;;15.30;93.98;95507.27;108202;1279;22521;-76
2023/07/26 00:46:13;;;;;;;6.60;4.70;;;;;;;15.27;93.87;95511.66;108197;1272;22542;-76
2023/07/26 00:48:45;;;;;;;6.80;4.90;;;;;;;15.25;93.81;95512.23;108227;1279;22518;-76
2023/07/26 00:51:18;;;;;;;4.90;4.10;;;;;;;15.19;93.76;95512.17;108192;1279;24600;-76
2023/07/26 00:53:50;;;;;;;5.50;4.10;;;;;;;15.10;93.78;95514.04;108215;1279;24223;-76
2023/07/26 00:56:22;;;;;;;6.10;4.50;;;;;;;15.00;93.86;95511.27;108246;1279;22531;-76
2023/07/26 00:58:53;;;;;;;6.30;4.50;;;;;;;14.94;94.29;95505.15;108199;1279;22539;-76
2023/07/26 01:01:25;;;;;;;5.90;4.30;;;;;;;14.93;94.52;95501.52;108212;1279;23525;-76
2023/07/26 01:03:56;;;;;;;5.30;4.80;;;;;;;14.93;94.89;95498.56;108226;1279;22546;-76
2023/07/26 01:06:38;;;;;;;8.30;4.80;;;;;;;14.96;95.00;95499.50;108231;1279;24218;-76
2023/07/26 01:09:19;;;;;;;6.80;4.50;;;;;;;14.97;94.92;95505.01;108266;1279;22732;-76
2023/07/26 01:11:59;;;;;;;4.60;4.00;;;;;;;14.96;94.91;95506.27;108248;1279;22559;-76
2023/07/26 01:14:38;;;;;;;5.80;4.50;;;;;;;14.94;94.72;95504.54;108187;1279;22527;-76
2023/07/26 01:17:10;;;;;;;6.40;5.00;;;;;;;14.89;94.76;95502.30;108170;1279;22559;-76
2023/07/26 01:19:44;;;;;;;7.90;4.40;;;;;;;14.84;95.01;95504.97;108238;1279;22667;-76
2023/07/26 01:22:16;;;;;;;7.00;4.80;;;;;;;14.80;95.08;95500.73;108230;1279;22520;-76
2023/07/26 01:24:47;;;;;;;5.40;4.40;;;;;;;14.78;95.46;95496.86;108223;1276;25454;-76
2023/07/26 01:27:19;;;;;;;6.60;4.50;;;;;;;14.77;95.59;95494.08;108254;1277;22515;-76
2023/07/26 01:29:54;;;;;;;6.00;4.40;;;;;;;14.82;95.87;95499.13;108242;1279;24449;-76
2023/07/26 01:32:30;;;;;;;7.30;4.80;;;;;;;14.87;95.87;95501.46;108231;1279;22584;-76
2023/07/26 01:35:05;;;;;;;6.40;3.90;;;;;;;14.88;95.82;95497.77;108201;1279;22563;-76
2023/07/26 01:37:39;;;;;;;4.70;3.60;;;;;;;14.89;95.66;95494.27;108263;1279;22547;-76
2023/07/26 01:40:14;;;;;;;4.30;3.50;;;;;;;14.90;95.58;95496.91;108237;1279;22455;-76
2023/07/26 01:42:45;;;;;;;5.70;3.10;;;;;;;14.91;95.39;95503.43;108303;1279;22532;-76
2023/07/26 01:45:17;;;;;;;4.10;3.20;;;;;;;14.90;95.22;95501.63;108259;1279;22525;-76
2023/07/26 01:47:49;;;;;;;4.20;3.40;;;;;;;14.89;95.15;95499.94;108230;1276;26440;-76
2023/07/26 01:50:21;;;;;;;3.90;3.00;;;;;;;14.82;94.99;95495.08;108285;1279;22557;-76
2023/07/26 01:52:54;;;;;;;5.00;3.30;;;;;;;14.79;95.16;95491.86;108229;1279;22634;-76
2023/07/26 01:55:26;;;;;;;7.00;3.30;;;;;;;14.82;95.33;95496.21;108194;1279;25395;-76
2023/07/26 01:57:58;;;;;;;4.30;3.60;;;;;;;14.81;95.15;95499.79;108234;1279;22520;-76
2023/07/26 02:00:29;;;;;;;6.90;4.00;;;;;;;14.75;95.11;95504.00;108209;1279;23173;-76
2023/07/26 02:03:00;;;;;;;4.70;3.80;;;;;;;14.73;95.49;95501.70;108203;1276;22603;-76
2023/07/26 02:05:42;;;;;;;6.80;4.00;;;;;;;14.73;95.63;95500.58;108219;1279;22577;-76
2023/07/26 02:08:15;;;;;;;6.30;4.20;;;;;;;14.71;95.81;95503.55;108282;1278;22521;-76
2023/07/26 02:10:46;;;;;;;5.30;3.80;;;;;;;14.72;95.97;95502.50;108232;1272;22576;-76
2023/07/26 02:13:18;;;;;;;4.50;3.60;;;;;;;14.74;95.90;95502.05;108249;1272;22894;-76
2023/07/26 02:15:49;;;;;;;3.20;2.90;;;;;;;14.72;95.82;95497.55;108227;1279;22609;-76
2023/07/26 02:18:21;;;;;;;4.70;3.40;;;;;;;14.66;95.74;95495.02;108217;1277;22518;-76
2023/07/26 02:20:52;;;;;;;4.60;3.60;;;;;;;14.65;96.03;95497.66;108231;1279;22550;-76
2023/07/26 02:23:24;;;;;;;4.60;3.80;;;;;;;14.66;95.96;95499.29;108203;1279;25246;-75
2023/07/26 02:25:57;;;;;;;4.20;3.50;;;;;;;14.64;96.03;95506.19;108230;1279;22713;-76
2023/07/26 02:28:29;;;;;;;4.30;3.60;;;;;;;14.65;96.32;95505.66;108220;1278;22526;-76
2023/07/26 02:31:00;;;;;;;4.90;3.80;;;;;;;14.68;96.48;95504.84;108245;1279;22555;-75
2023/07/26 02:33:34;;;;;;;4.10;3.30;;;;;;;14.75;96.60;95503.30;108170;1280;22543;-76
2023/07/26 02:36:06;;;;;;;4.70;3.60;;;;;;;14.80;96.51;95508.05;108198;1280;22546;-76
2023/07/26 02:38:40;;;;;;;6.70;4.40;;;;;;;14.83;96.50;95515.71;108187;1276;22528;-76
2023/07/26 02:41:12;;;;;;;4.10;3.50;;;;;;;14.84;96.36;95511.08;108243;1280;22559;-76
2023/07/26 02:43:43;;;;;;;4.20;3.60;;;;;;;14.86;96.15;95504.42;108204;1280;24827;-76
2023/07/26 02:46:17;;;;;;;4.70;3.80;;;;;;;14.81;95.96;95505.66;108243;1280;24433;-76
2023/07/26 02:48:48;;;;;;;5.00;3.90;;;;;;;14.76;95.90;95508.22;108288;1272;24270;-76
2023/07/26 02:51:20;;;;;;;4.10;3.30;;;;;;;14.75;96.01;95508.64;108277;1279;23079;-76
2023/07/26 02:53:52;;;;;;;4.20;3.40;;;;;;;14.76;96.10;95506.02;108210;1274;22563;-76
2023/07/26 02:56:24;;;;;;;3.70;3.20;;;;;;;14.74;95.91;95503.19;108242;1279;22520;-75
2023/07/26 02:58:56;;;;;;;3.30;3.00;;;;;;;14.71;96.10;95504.46;108218;1279;22569;-76
2023/07/26 03:01:28;;;;;;;3.90;3.30;;;;;;;14.70;96.08;95503.21;108259;1259;22508;-76
2023/07/26 03:04:00;;;;;;;5.80;3.10;;;;;;;14.68;96.10;95507.33;108264;1279;22529;-76
2023/07/26 03:06:31;;;;;;;4.30;3.40;;;;;;;14.65;96.18;95501.46;108217;1279;24154;-76
2023/07/26 03:09:03;;;;;;;4.80;3.70;;;;;;;14.64;96.37;95499.98;108261;1279;25301;-76
2023/07/26 03:11:37;;;;;;;4.70;3.90;;;;;;;14.67;96.53;95502.75;108231;1279;22531;-76
2023/07/26 03:14:09;;;;;;;4.20;3.40;;;;;;;14.69;96.52;95503.35;108247;1279;22517;-75
2023/07/26 03:16:41;;;;;;;4.10;3.60;;;;;;;14.68;96.37;95500.48;108247;1278;22531;-76
2023/07/26 03:19:15;;;;;;;4.20;3.50;;;;;;;14.66;96.42;95498.38;108236;1279;22536;-75
2023/07/26 03:21:47;;;;;;;6.00;3.40;;;;;;;14.62;96.40;95497.99;108223;1279;22539;-75
2023/07/26 03:24:19;;;;;;;4.80;4.10;;;;;;;14.59;96.45;95505.81;108241;1278;25240;-75
2023/07/26 03:26:50;;;;;;;5.10;4.50;;;;;;;14.61;96.76;95509.39;108260;1279;23646;-76
2023/07/26 03:29:22;;;;;;;4.90;4.40;;;;;;;14.68;97.05;95512.23;108273;1278;22531;-75
2023/07/26 03:31:53;;;;;;;6.30;4.80;;;;;;;14.74;97.06;95515.69;108245;1278;22545;-76
2023/07/26 03:34:25;;;;;;;6.70;5.10;;;;;;;14.78;97.00;95523.07;108219;1273;22544;-75
2023/07/26 03:36:56;;;;;;;5.60;4.80;;;;;;;14.80;97.00;95523.91;108274;1279;22516;-76
2023/07/26 03:39:28;;;;;;;6.20;4.60;;;;;;;14.84;97.12;95524.88;108236;1272;22538;-76
2023/07/26 03:41:59;;;;;;;7.30;5.30;;;;;;;14.92;97.24;95526.70;108262;1279;22657;-76
2023/07/26 03:44:31;;;;;;;6.40;4.70;;;;;;;14.96;97.14;95525.55;108230;1279;22528;-76
2023/07/26 03:47:08;;;;;;;5.80;4.60;;;;;;;14.97;97.01;95528.72;108262;1279;22547;-76
2023/07/26 03:49:40;;;;;;;5.00;4.50;;;;;;;14.97;96.95;95526.14;108232;1279;25336;-76
2023/07/26 03:52:16;;;;;;;5.30;4.30;;;;;;;14.98;96.85;95525.10;108219;1278;22662;-76
2023/07/26 03:54:48;;;;;;;6.50;4.90;;;;;;;15.03;97.18;95522.83;108168;1279;22536;-76
2023/07/26 03:57:20;;;;;;;5.90;4.80;;;;;;;15.08;97.08;95528.17;108251;1276;22530;-76
2023/07/26 03:59:51;;;;;;;6.30;4.70;;;;;;;15.13;96.93;95529.23;108229;1278;22524;-76
2023/07/26 04:02:22;;;;;;;5.90;4.80;;;;;;;15.16;96.73;95519.33;108222;1279;22651;-76
2023/07/26 04:04:54;;;;;;;5.00;4.20;;;;;;;15.15;96.53;95520.76;108218;1279;22533;-76
2023/07/26 04:07:25;;;;;;;5.20;3.80;;;;;;;15.14;96.31;95522.34;108275;1279;23185;-75
2023/07/26 04:09:59;;;;;;;6.10;4.60;;;;;;;15.14;96.19;95525.23;108207;1279;22524;-76
2023/07/26 04:12:33;;;;;;;5.10;3.90;;;;;;;15.16;96.25;95526.80;108238;1279;22532;-76
2023/07/26 04:15:06;;;;;;;5.50;4.50;;;;;;;15.18;96.06;95523.42;108223;1279;22521;-75
2023/07/26 04:17:39;;;;;;;5.40;3.90;;;;;;;15.20;96.17;95517.88;108280;1271;22514;-76
2023/07/26 04:20:13;;;;;;;5.70;4.00;;;;;;;15.27;96.34;95518.00;108292;1272;22527;-76
2023/07/26 04:22:45;;;;;;;5.10;4.50;;;;;;;15.39;96.55;95530.73;108258;1279;24245;-76
2023/07/26 04:25:16;;;;;;;5.60;4.30;;;;;;;15.48;96.40;95533.15;108234;1276;22501;-76
2023/07/26 04:27:48;;;;;;;6.00;4.80;;;;;;;15.54;96.18;95517.20;108231;1279;22530;-76
2023/07/26 04:30:19;;;;;;;5.80;4.80;;;;;;;15.60;96.20;95519.45;108229;1273;22532;-76
2023/07/26 04:32:51;;;;;;;7.10;5.50;;;;;;;15.66;96.00;95526.31;108220;1272;22531;-76
2023/07/26 04:35:22;;;;;;;6.60;5.20;;;;;;;15.71;96.02;95533.01;108216;1279;22514;-76
2023/07/26 04:37:54;;;;;;;6.40;4.60;;;;;;;15.82;96.32;95536.15;108274;1279;22641;-76
2023/07/26 04:40:26;;;;;;;6.80;5.20;;;;;;;15.87;95.84;95540.36;108254;1275;24265;-76
2023/07/26 04:42:58;;;;;;;5.60;4.70;;;;;;;15.92;95.91;95538.74;108252;1279;22602;-76
2023/07/26 04:45:30;;;;;;;4.70;4.20;;;;;;;15.97;95.55;95532.94;108063;1276;177043;-76
2023/07/26 04:48:02;;;;;;;4.60;4.10;;;;;;;16.04;95.30;95528.48;108298;1279;22532;-76
2023/07/26 04:50:34;;;;;;;5.60;4.00;;;;;;;16.12;95.05;95529.84;108228;1279;24089;-76
2023/07/26 04:53:08;;;;;;;4.70;4.10;;;;;;;16.18;94.95;95538.19;108255;1277;22537;-76
2023/07/26 04:55:45;;;;;;;5.20;4.30;;;;;;;16.18;94.76;95541.30;108224;1279;24441;-75
2023/07/26 04:58:17;;;;;;;6.10;4.60;;;;;;;16.20;94.92;95546.88;108292;1279;25259;-76
2023/07/26 05:00:50;;;;;;;6.40;4.60;;;;;;;16.24;95.17;95556.09;108256;1277;22517;-76
2023/07/26 05:03:21;;;;;;;6.50;5.00;;;;;;;16.27;94.96;95560.07;108237;1279;24378;-76
2023/07/26 05:05:55;;;;;;;7.20;5.20;;;;;;;16.27;94.84;95547.01;108160;1279;22627;-76
2023/07/26 05:08:26;;;;;;;5.60;4.70;;;;;;;16.31;94.99;95548.09;108289;1279;22520;-76
2023/07/26 05:11:00;;;;;;;6.20;5.40;;;;;;;16.38;94.83;95546.53;108214;1279;22524;-76
2023/07/26 05:13:33;;;;;;;6.90;5.30;;;;;;;16.52;95.17;95542.31;108298;1278;22544;-76
2023/07/26 05:16:06;;;;;;;7.50;5.30;;;;;;;16.69;95.14;95551.20;108233;1276;25243;-76
2023/07/26 05:18:41;;;;;;;6.50;4.50;;;;;;;16.69;94.15;95551.13;108221;1276;22575;-75
2023/07/26 05:21:12;;;;;;;5.20;4.50;;;;;;;16.56;93.70;95546.41;108248;1273;22589;-76
2023/07/26 05:23:44;;;;;;;4.90;4.40;;;;;;;16.48;93.58;95551.77;108220;1278;22638;-75
2023/07/26 05:26:16;;;;;;;5.00;3.50;;;;;;;16.36;93.35;95549.46;108241;1279;25334;-75
2023/07/26 05:28:48;;;;;;;6.40;4.10;;;;;;;16.24;93.35;95550.96;108222;1279;22556;-75
2023/07/26 05:31:19;;;;;;;6.20;4.50;;;;;;;16.21;93.74;95543.33;108259;1279;22600;-76
2023/07/26 05:33:51;;;;;;;5.80;4.10;;;;;;;16.19;93.71;95532.80;108199;1277;22634;-75
2023/07/26 05:36:22;;;;;;;6.00;4.40;;;;;;;16.16;93.67;95522.31;108236;1276;22639;-76
2023/07/26 05:38:54;;;;;;;5.80;4.90;;;;;;;16.19;93.92;95526.14;108184;1279;23295;-76
2023/07/26 05:41:30;;;;;;;6.20;4.60;;;;;;;16.24;94.04;95530.42;108276;1278;22569;-76
2023/07/26 05:44:04;;;;;;;6.60;4.80;;;;;;;16.31;94.09;95528.77;108179;1279;24399;-76
2023/07/26 05:46:38;;;;;;;5.70;4.90;;;;;;;16.38;94.20;95528.27;108217;1279;22699;-76
2023/07/26 05:49:10;;;;;;;7.00;4.90;;;;;;;16.48;94.31;95525.54;108233;1279;22953;-75
2023/07/26 05:51:44;;;;;;;5.80;4.80;;;;;;;16.56;93.94;95523.69;108176;1279;22534;-76
2023/07/26 05:54:16;;;;;;;5.20;4.70;;;;;;;16.67;93.93;95525.06;108205;1276;26483;-75
2023/07/26 05:56:47;;;;;;;4.80;4.20;;;;;;;16.76;93.48;95525.40;108216;1272;25246;-76
2023/07/26 05:59:20;;;;;;;8.10;5.00;;;;;;;16.80;93.14;95523.12;108205;1279;22546;-76
2023/07/26 06:01:51;;;;;;;5.70;5.10;;;;;;;16.94;93.53;95524.70;108270;1278;22540;-76
2023/07/26 06:04:23;;;;;;;5.20;4.60;;;;;;;17.09;92.83;95524.98;108234;1273;22630;-75
2023/07/26 06:06:55;;;;;;;5.20;4.40;;;;;;;17.11;92.08;95521.59;108229;1279;24228;-76
2023/07/26 06:09:29;;;;;;;6.50;5.40;;;;;;;17.02;91.67;95523.44;108193;1272;25325;-76
2023/07/26 06:12:01;;;;;;;6.20;4.50;;;;;;;17.13;92.16;95528.30;108230;1278;22525;-76
2023/07/26 06:14:33;;;;;;;8.10;5.60;;;;;;;17.27;92.19;95530.38;108249;1279;22548;-76
2023/07/26 06:17:07;;;;;;;6.10;5.50;;;;;;;17.35;92.11;95535.26;108242;1279;22538;-76
2023/07/26 06:19:40;;;;;;;6.40;5.70;;;;;;;17.36;91.89;95540.02;108204;1279;25296;-76
2023/07/26 06:22:12;;;;;;;7.90;6.00;;;;;;;17.34;91.99;95542.41;108264;1279;22528;-76
2023/07/26 06:24:44;;;;;;;6.90;5.50;;;;;;;17.31;91.95;95541.58;108213;1272;24373;-76
2023/07/26 06:27:21;;;;;;;6.80;5.60;;;;;;;17.31;92.05;95534.83;108204;1280;25422;-76
2023/07/26 06:29:52;;;;;;;6.10;5.20;;;;;;;17.31;91.99;95532.63;108227;1278;22530;-76
2023/07/26 06:32:26;;;;;;;8.30;5.80;;;;;;;17.31;92.12;95532.24;108203;1263;25404;-76
2023/07/26 06:34:58;;;;;;;8.50;5.70;;;;;;;17.34;92.25;95539.23;108179;1279;22530;-76
2023/07/26 06:37:29;;;;;;;8.20;6.50;;;;;;;17.37;92.21;95550.67;108200;1279;23488;-76
2023/07/26 06:40:01;;;;;;;8.60;6.70;;;;;;;17.37;92.12;95560.10;108186;1279;24216;-76
2023/07/26 06:42:33;;;;;;;8.40;6.70;;;;;;;17.33;92.07;95563.89;108207;1279;22534;-76
2023/07/26 06:45:07;;;;;;;9.30;7.40;;;;;;;17.30;92.13;95560.92;108219;1279;22567;-76
2023/07/26 06:47:39;;;;;;;7.70;6.90;;;;;;;17.29;92.25;95552.99;108256;1274;22562;-76
2023/07/26 06:50:11;;;;;;;8.30;6.90;;;;;;;17.33;92.50;95548.42;108240;1279;22533;-76
2023/07/26 06:52:46;;;;;;;8.60;7.50;;;;;;;17.48;93.15;95544.11;108244;1279;22539;-76
2023/07/26 06:55:18;;;;;;;8.90;7.00;;;;;;;17.84;93.84;95550.77;108152;1279;22532;-76
2023/07/26 06:57:50;;;;;;;10.40;7.80;;;;;;;18.25;93.09;95553.46;108237;1276;22523;-76
2023/07/26 07:00:22;;;;;;;9.00;7.60;;;;;;;18.58;92.74;95558.71;108216;1279;24253;-76
2023/07/26 07:02:57;;;;;;;8.30;7.00;;;;;;;18.81;91.82;95558.94;108232;1276;22524;-76
2023/07/26 07:05:30;;;;;;;9.40;8.10;;;;;;;19.07;91.34;95564.14;108217;1272;22526;-76
2023/07/26 07:08:02;;;;;;;11.00;7.90;;;;;;;19.21;90.15;95562.46;108229;1277;25490;-76
2023/07/26 07:10:37;;;;;;;8.10;7.10;;;;;;;19.38;89.67;95562.44;108207;1279;22561;-76
2023/07/26 07:13:09;;;;;;;8.20;6.80;;;;;;;19.56;89.09;95561.52;108162;1273;22524;-76
2023/07/26 07:15:40;;;;;;;9.60;8.40;;;;;;;19.56;88.18;95558.05;108254;1279;25369;-76
2023/07/26 07:18:12;;;;;;;8.70;7.50;;;;;;;19.68;88.17;95555.40;108239;1278;23080;-76
2023/07/26 07:20:45;;;;;;;9.70;7.80;;;;;;;19.74;87.39;95552.65;108214;1276;22710;-76
2023/07/26 07:23:16;;;;;;;9.80;7.80;;;;;;;19.59;86.23;95553.04;108207;1279;25245;-76
2023/07/26 07:25:48;;;;;;;10.20;8.10;;;;;;;19.48;86.29;95552.92;108192;1279;23016;-76
2023/07/26 07:28:22;;;;;;;9.40;7.90;;;;;;;19.47;86.88;95557.20;108219;1279;25591;-76
2023/07/26 07:30:55;;;;;;;9.00;8.00;;;;;;;19.47;86.00;95556.66;108241;1279;25272;-76
2023/07/26 07:33:26;;;;;;;9.00;7.70;;;;;;;19.24;85.23;95560.59;108213;1280;22615;-76
2023/07/26 07:35:59;;;;;;;10.20;9.10;;;;;;;18.99;84.96;95566.48;108146;1279;22524;-76
2023/07/26 07:38:30;;;;;;;10.50;8.60;;;;;;;18.85;85.36;95567.61;108197;1278;22606;-76
2023/07/26 07:41:02;;;;;;;11.50;10.10;;;;;;;18.80;85.94;95563.76;108227;1277;22805;-76
2023/07/26 07:43:34;;;;;;;13.20;10.40;;;;;;;18.78;86.16;95558.65;108238;1272;22534;-76
2023/07/26 07:46:10;;;;;;;11.40;10.20;;;;;;;18.80;86.33;95550.02;108210;1279;24262;-76
2023/07/26 07:48:43;;;;;;;10.50;9.40;;;;;;;18.89;86.51;95550.18;108236;1279;22793;-76
2023/07/26 07:51:15;;;;;;;14.00;10.20;;;;;;;18.90;86.74;95547.73;108237;1279;22561;-76
2023/07/26 07:53:48;;;;;;;11.00;9.70;;;;;;;18.91;86.55;95542.86;108200;1279;22531;-76
2023/07/26 07:56:20;;;;;;;11.90;9.60;;;;;;;18.83;86.30;95541.93;108233;1278;22530;-76
2023/07/26 07:58:51;;;;;;;12.20;10.50;;;;;;;18.86;87.03;95542.52;108238;1268;22555;-76
2023/07/26 08:01:23;;;;;;;12.10;10.10;;;;;;;18.87;87.01;95543.86;108217;1279;23109;-77
2023/07/26 08:03:56;;;;;;;11.30;9.30;;;;;;;18.77;86.58;95556.41;108202;1279;22995;-76
2023/07/26 08:06:27;;;;;;;11.40;8.60;;;;;;;18.72;87.04;95558.01;108155;1279;22526;-76
2023/07/26 08:08:59;;;;;;;9.80;8.80;;;;;;;18.67;86.94;95565.35;108206;1279;22684;-76
2023/07/26 08:11:34;;;;;;;9.80;8.80;;;;;;;18.61;86.75;95566.38;108259;1279;22537;-76
2023/07/26 08:14:06;;;;;;;10.50;8.40;;;;;;;18.55;86.61;95561.09;108217;1279;22625;-76
2023/07/26 08:16:38;;;;;;;10.60;9.30;;;;;;;18.58;87.26;95558.33;108216;1279;22540;-76
2023/07/26 08:19:10;;;;;;;10.20;9.10;;;;;;;18.61;87.44;95563.08;108190;1279;22579;-76
2023/07/26 08:21:43;;;;;;;8.60;7.70;;;;;;;18.62;87.39;95565.85;108219;1278;22540;-76
2023/07/26 08:24:15;;;;;;;9.70;8.70;;;;;;;18.53;86.33;95566.98;108208;1279;22540;-76
2023/07/26 08:26:46;;;;;;;12.00;10.70;;;;;;;18.45;86.54;95566.90;108228;1279;22678;-76
2023/07/26 08:29:18;;;;;;;10.70;9.30;;;;;;;18.37;87.22;95570.05;108160;1279;22629;-76
2023/07/26 08:31:52;;;;;;;9.70;8.70;;;;;;;18.34;87.27;95578.19;108178;1279;22526;-76
2023/07/26 08:34:24;;;;;;;7.00;5.10;;;;;;;18.15;85.90;95582.77;108198;1276;22557;-77
2023/07/26 08:36:59;;;;;;;5.40;4.30;;;;;;;17.79;85.51;95590.40;108204;1279;22638;-76
2023/07/26 08:39:31;;;;;;;4.60;3.70;;;;;;;17.45;85.41;95588.39;108205;1280;23714;-77
2023/07/26 08:42:06;;;;;;;5.00;3.60;;;;;;;17.13;85.46;95595.02;108169;1279;22569;-77
2023/07/26 08:44:39;;;;;;;3.50;2.20;;;;;;;16.86;85.64;95596.38;108175;1273;22713;-76
2023/07/26 08:47:13;;;;;;;2.90;1.80;;;;;;;16.57;86.00;95598.51;108183;1279;24387;-76
2023/07/26 08:49:46;;;;;;;1.80;1.60;;;;;;;16.36;86.43;95592.65;108190;1279;25281;-77
2023/07/26 08:52:19;;;;;;;6.60;2.70;;;;;;;16.20;87.12;95592.24;108184;1279;22524;-77
2023/07/26 08:54:53;;;;;;;2.50;1.40;;;;;;;16.09;87.66;95591.41;108193;1279;22575;-77
2023/07/26 08:57:28;;;;;;;1.90;1.20;;;;;;;15.98;87.91;95596.82;108223;1279;22532;-77
2023/07/26 09:00:00;;;;;;;2.50;1.80;;;;;;;15.91;88.42;95604.72;108189;1279;22528;-76
2023/07/26 09:02:36;;;;;;;2.40;1.70;;;;;;;15.86;88.89;95614.00;108185;1277;23008;-77
2023/07/26 09:05:10;;;;;;;4.30;2.10;;;;;;;15.82;89.48;95620.25;108164;1279;22534;-77
2023/07/26 09:07:43;;;;;;;2.50;2.30;;;;;;;15.80;89.74;95623.77;108219;1279;22525;-76
2023/07/26 09:10:15;;;;;;;2.60;2.00;;;;;;;15.76;90.23;95634.85;108184;1279;22579;-76
2023/07/26 09:12:50;;;;;;;3.10;2.30;;;;;;;15.72;90.63;95641.63;108198;1272;22543;-76
2023/07/26 09:15:24;;;;;;;3.00;2.20;;;;;;;15.69;90.93;95639.08;108193;1279;24005;-76
2023/07/26 09:18:03;;;;;;;3.40;2.90;;;;;;;15.69;91.42;95637.63;108256;1278;22538;-76
2023/07/26 09:20:40;;;;;;;5.00;3.60;;;;;;;15.75;92.02;95632.79;108223;1279;22631;-76
2023/07/26 09:23:16;;;;;;;7.10;4.50;;;;;;;15.82;92.07;95634.13;108188;1279;25002;-76
2023/07/26 09:25:48;;;;;;;3.30;2.50;;;;;;;15.83;91.99;95631.79;108215;1279;22587;-76
2023/07/26 09:28:23;;;;;;;3.20;2.90;;;;;;;15.81;91.81;95631.59;108197;1279;22533;-76
2023/07/26 09:30:59;;;;;;;4.00;3.60;;;;;;;15.81;92.00;95632.44;108182;1272;23972;-76
2023/07/26 09:33:34;;;;;;;6.20;5.20;;;;;;;15.89;92.71;95639.02;108189;1279;24221;-76
2023/07/26 09:36:07;;;;;;;2.60;2.40;;;;;;;15.96;92.70;95641.90;108214;1274;22528;-76
2023/07/26 09:38:44;;;;;;;1.90;1.70;;;;;;;15.94;92.31;95648.05;108184;1277;22555;-76
2023/07/26 09:41:28;;;;;;;2.40;1.70;;;;;;;15.91;92.61;95648.56;108191;1279;25373;-76
2023/07/26 09:44:04;;;;;;;1.80;1.70;;;;;;;15.93;93.06;95647.87;108211;1279;22528;-76
2023/07/26 09:46:49;;;;;;;2.40;1.70;;;;;;;15.94;92.97;95646.06;108177;1279;22542;-76
2023/07/26 09:49:23;;;;;;;2.00;1.80;;;;;;;15.94;93.41;95648.63;108198;1277;22533;-76
2023/07/26 09:51:58;;;;;;;2.70;2.00;;;;;;;15.90;93.55;95647.96;108179;1279;22535;-76
2023/07/26 09:54:36;;;;;;;2.20;2.00;;;;;;;15.89;94.00;95649.92;108195;1279;25357;-77
2023/07/26 09:57:10;;;;;;;1.80;1.60;;;;;;;15.88;93.99;95650.81;108187;1277;22524;-76
2023/07/26 09:59:44;;;;;;;1.30;1.20;;;;;;;15.87;94.08;95652.38;108244;1279;22546;-76
2023/07/26 10:02:17;;;;;;;1.50;1.40;;;;;;;15.83;93.58;95653.85;108183;1279;22531;-76
2023/07/26 10:04:52;;;;;;;1.00;0.90;;;;;;;15.79;93.93;95662.84;108198;1274;25326;-76
2023/07/26 10:07:28;;;;;;;1.10;1.00;;;;;;;15.80;94.11;95666.98;108180;1276;24260;-76
2023/07/26 10:10:01;;;;;;;1.40;1.30;;;;;;;15.80;93.85;95672.39;108258;1274;22616;-76
2023/07/26 10:12:39;;;;;;;1.30;0.80;;;;;;;15.73;93.64;95675.48;108204;1279;22521;-76
2023/07/26 10:15:14;;;;;;;1.70;1.30;;;;;;;15.68;93.70;95678.76;108290;1279;25287;-76
2023/07/26 10:17:49;;;;;;;0.60;0.60;;;;;;;15.61;93.23;95678.98;108201;1279;22540;-76
2023/07/26 10:20:21;;;;;;;3.20;2.50;;;;;;;15.53;93.15;95677.94;108188;1274;22536;-76
2023/07/26 10:22:55;;;;;;;0.80;0.70;;;;;;;15.47;93.17;95687.57;108169;1279;22521;-77
2023/07/26 10:25:29;;;;;;;5.30;3.80;;;;;;;15.45;93.34;95685.59;108147;1279;22525;-76
2023/07/26 10:28:05;;;;;;;0.90;0.80;;;;;;;15.43;93.32;95688.06;108205;1279;22528;-76
2023/07/26 10:30:38;;;;;;;0.50;0.50;;;;;;;15.39;93.29;95685.63;108155;1279;22643;-76
2023/07/26 10:33:15;;;;;;;0.50;0.50;;;;;;;15.35;93.33;95690.48;108192;1276;26585;-76
2023/07/26 10:35:51;;;;;;;0.40;0.40;;;;;;;15.30;93.27;95685.84;108132;1279;22523;-77
2023/07/26 10:38:26;;;;;;;0.30;0.30;;;;;;;15.23;93.21;95688.29;108172;1273;24991;-76
2023/07/26 10:40:57;;;;;;;0.40;0.20;;;;;;;15.17;93.32;95690.46;108386;1270;22574;-76
2023/07/26 10:43:42;;;;;;;0.60;0.40;;;;;;;15.15;93.57;95692.61;108209;1279;22533;-76
2023/07/26 10:46:16;;;;;;;0.80;0.70;;;;;;;15.15;93.69;95696.80;108163;1279;22710;-76
2023/07/26 10:48:48;;;;;;;0.80;0.50;;;;;;;15.12;93.94;95693.86;108236;1279;22530;-76
2023/07/26 10:51:31;;;;;;;0.60;0.30;;;;;;;15.10;93.91;95693.57;108236;1279;22932;-77
2023/07/26 10:54:10;;;;;;;1.40;0.70;;;;;;;15.08;94.10;95697.57;108239;1272;22776;-76
2023/07/26 10:56:42;;;;;;;0.70;0.50;;;;;;;15.06;94.14;95697.44;108214;1276;22535;-76
2023/07/26 10:59:34;;;;;;;0.40;0.40;;;;;;;15.06;94.22;95700.66;108239;1273;22536;-76
2023/07/26 11:02:13;;;;;;;0.40;0.40;;;;;;;15.02;94.30;95708.98;108198;1279;24206;-76
2023/07/26 11:04:48;;;;;;;0.70;0.60;;;;;;;14.96;94.32;95707.04;108123;1279;22535;-77
2023/07/26 11:07:21;;;;;;;1.60;1.10;;;;;;;14.90;94.76;95716.58;108214;1279;24359;-77
2023/07/26 11:10:13;;;;;;;0.80;0.80;;;;;;;14.95;95.25;95720.65;108220;1276;22522;-77
2023/07/26 11:12:46;;;;;;;1.80;1.70;;;;;;;14.97;94.99;95724.30;108187;1279;22555;-77
2023/07/26 11:15:27;;;;;;;3.20;2.40;;;;;;;14.92;94.63;95723.63;108171;1274;25409;-77
2023/07/26 11:17:59;;;;;;;3.60;2.40;;;;;;;14.95;94.95;95723.65;108180;1279;25420;-77
2023/07/26 11:20:30;;;;;;;3.60;2.40;;;;;;;15.01;95.14;95725.58;108181;1279;22608;-76
2023/07/26 11:23:14;;;;;;;2.00;1.80;;;;;;;15.05;95.09;95727.64;108175;1279;24321;-77
2023/07/26 11:25:50;;;;;;;11.10;7.40;;;;;;;15.11;95.20;95733.13;108173;1272;24218;-77
2023/07/26 11:28:23;;;;;;;6.40;4.40;;;;;;;15.13;95.07;95738.48;108227;1272;25435;-77
2023/07/26 11:30:58;;;;;;;2.40;2.00;;;;;;;15.17;95.12;95746.13;108185;1272;25421;-76
2023/07/26 11:33:32;;;;;;;2.50;2.20;;;;;;;15.09;94.38;95750.52;108204;1257;22523;-77
2023/07/26 11:36:07;;;;;;;2.90;2.60;;;;;;;14.95;94.10;95751.78;108173;1273;22722;-77
2023/07/26 11:38:44;;;;;;;2.50;2.00;;;;;;;14.86;94.20;95755.62;108188;1279;22765;-77
2023/07/26 11:41:20;;;;;;;2.10;1.90;;;;;;;14.75;94.10;95761.27;108175;1279;23359;-77
2023/07/26 11:43:53;;;;;;;2.80;2.60;;;;;;;14.63;94.29;95759.81;108201;1276;22560;-76
2023/07/26 11:46:30;;;;;;;2.50;1.70;;;;;;;14.63;94.72;95764.44;108192;1279;22536;-77
2023/07/26 11:49:12;;;;;;;3.30;3.00;;;;;;;14.62;94.73;95767.23;108189;1273;22533;-77
2023/07/26 11:51:44;;;;;;;3.40;2.00;;;;;;;14.65;95.06;95765.83;108247;1272;22616;-77